sensor_id;sensor_type;location;lat;lon;timestamp;temperature;humidity
15298;DHT22;7750;48.796;9.026;2023-05-19T00:03:34;16.10;54.10
15298;DHT22;7750;48.796;9.026;2023-05-19T00:08:37;16.10;54.20
15298;DHT22;7750;48.796;9.026;2023-05-19T00:13:38;16.00;54.20
15298;DHT22;7750;48.796;9.026;2023-05-19T00:18:38;16.00;54.50
15298;DHT22;7750;48.796;9.026;2023-05-19T00:23:40;15.90;54.50
15298;DHT22;7750;48.796;9.026;2023-05-19T00:28:40;15.90;54.70
15298;DHT22;7750;48.796;9.026;2023-05-19T00:33:41;15.80;54.70
15298;DHT22;7750;48.796;9.026;2023-05-19T00:38:41;15.80;54.80
15298;DHT22;7750;48.796;9.026;2023-05-19T00:43:42;15.70;54.90
15298;DHT22;7750;48.796;9.026;2023-05-19T00:48:43;15.70;55.00
15298;DHT22;7750;48.796;9.026;2023-05-19T00:53:45;15.60;55.00
15298;DHT22;7750;48.796;9.026;2023-05-19T00:58:50;15.60;55.10
15298;DHT22;7750;48.796;9.026;2023-05-19T01:03:51;15.60;55.00
15298;DHT22;7750;48.796;9.026;2023-05-19T01:08:53;15.50;55.00
15298;DHT22;7750;48.796;9.026;2023-05-19T01:13:54;15.40;55.00
15298;DHT22;7750;48.796;9.026;2023-05-19T01:25:04;15.30;55.80
15298;DHT22;7750;48.796;9.026;2023-05-19T01:35:30;15.20;56.20
15298;DHT22;7750;48.796;9.026;2023-05-19T01:40:32;15.10;55.90
15298;DHT22;7750;48.796;9.026;2023-05-19T01:45:33;15.10;56.00
15298;DHT22;7750;48.796;9.026;2023-05-19T01:50:34;15.00;55.90
15298;DHT22;7750;48.796;9.026;2023-05-19T01:55:47;15.00;55.80
15298;DHT22;7750;48.796;9.026;2023-05-19T02:16:44;14.90;56.60
15298;DHT22;7750;48.796;9.026;2023-05-19T02:21:46;14.80;56.40
15298;DHT22;7750;48.796;9.026;2023-05-19T02:26:51;14.80;56.40
15298;DHT22;7750;48.796;9.026;2023-05-19T02:31:52;14.80;56.50
15298;DHT22;7750;48.796;9.026;2023-05-19T02:36:52;14.70;56.50
15298;DHT22;7750;48.796;9.026;2023-05-19T02:41:53;14.70;56.70
15298;DHT22;7750;48.796;9.026;2023-05-19T02:46:53;14.70;56.70
15298;DHT22;7750;48.796;9.026;2023-05-19T02:51:54;14.60;56.80
15298;DHT22;7750;48.796;9.026;2023-05-19T02:56:55;14.60;57.00
15298;DHT22;7750;48.796;9.026;2023-05-19T03:01:59;14.60;56.90
15298;DHT22;7750;48.796;9.026;2023-05-19T03:07:00;14.60;57.20
15298;DHT22;7750;48.796;9.026;2023-05-19T03:12:01;14.60;57.20
15298;DHT22;7750;48.796;9.026;2023-05-19T03:17:03;14.60;57.40
15298;DHT22;7750;48.796;9.026;2023-05-19T03:22:06;14.50;57.30
15298;DHT22;7750;48.796;9.026;2023-05-19T03:27:07;14.50;57.40
15298;DHT22;7750;48.796;9.026;2023-05-19T03:32:08;14.50;57.30
15298;DHT22;7750;48.796;9.026;2023-05-19T03:37:08;14.50;57.40
15298;DHT22;7750;48.796;9.026;2023-05-19T03:42:10;14.40;57.50
15298;DHT22;7750;48.796;9.026;2023-05-19T03:47:28;14.40;57.60
15298;DHT22;7750;48.796;9.026;2023-05-19T03:52:32;14.40;57.80
15298;DHT22;7750;48.796;9.026;2023-05-19T03:57:33;14.30;57.70
15298;DHT22;7750;48.796;9.026;2023-05-19T04:02:33;14.30;58.00
15298;DHT22;7750;48.796;9.026;2023-05-19T04:07:49;14.30;58.10
15298;DHT22;7750;48.796;9.026;2023-05-19T04:12:50;14.30;58.40
15298;DHT22;7750;48.796;9.026;2023-05-19T04:17:51;14.30;58.40
15298;DHT22;7750;48.796;9.026;2023-05-19T04:22:51;14.20;58.50
15298;DHT22;7750;48.796;9.026;2023-05-19T04:27:52;14.20;58.40
15298;DHT22;7750;48.796;9.026;2023-05-19T04:32:56;14.20;58.70
15298;DHT22;7750;48.796;9.026;2023-05-19T04:37:58;14.20;58.70
15298;DHT22;7750;48.796;9.026;2023-05-19T04:42:59;14.10;58.70
15298;DHT22;7750;48.796;9.026;2023-05-19T04:48:01;14.20;58.90
15298;DHT22;7750;48.796;9.026;2023-05-19T04:53:02;14.20;59.10
15298;DHT22;7750;48.796;9.026;2023-05-19T04:58:02;14.20;59.10
15298;DHT22;7750;48.796;9.026;2023-05-19T05:03:03;14.20;59.10
15298;DHT22;7750;48.796;9.026;2023-05-19T05:08:04;14.20;59.10
15298;DHT22;7750;48.796;9.026;2023-05-19T05:13:05;14.20;59.10
15298;DHT22;7750;48.796;9.026;2023-05-19T05:18:06;14.10;59.30
15298;DHT22;7750;48.796;9.026;2023-05-19T05:23:08;14.20;59.20
15298;DHT22;7750;48.796;9.026;2023-05-19T05:28:09;14.20;59.20
15298;DHT22;7750;48.796;9.026;2023-05-19T05:33:10;14.10;59.60
15298;DHT22;7750;48.796;9.026;2023-05-19T05:38:11;14.20;59.50
15298;DHT22;7750;48.796;9.026;2023-05-19T05:43:12;14.30;59.70
15298;DHT22;7750;48.796;9.026;2023-05-19T05:48:13;14.30;59.70
15298;DHT22;7750;48.796;9.026;2023-05-19T05:53:17;14.40;59.70
15298;DHT22;7750;48.796;9.026;2023-05-19T05:58:18;14.50;60.00
15298;DHT22;7750;48.796;9.026;2023-05-19T06:03:20;14.70;59.90
15298;DHT22;7750;48.796;9.026;2023-05-19T06:08:23;14.80;59.90
15298;DHT22;7750;48.796;9.026;2023-05-19T06:13:24;14.90;59.80
15298;DHT22;7750;48.796;9.026;2023-05-19T06:18:27;15.10;59.90
15298;DHT22;7750;48.796;9.026;2023-05-19T06:23:29;15.30;60.00
15298;DHT22;7750;48.796;9.026;2023-05-19T06:28:31;15.40;60.00
15298;DHT22;7750;48.796;9.026;2023-05-19T06:33:32;15.60;59.90
15298;DHT22;7750;48.796;9.026;2023-05-19T06:38:33;15.80;59.80
15298;DHT22;7750;48.796;9.026;2023-05-19T06:43:36;16.00;60.10
15298;DHT22;7750;48.796;9.026;2023-05-19T06:48:40;16.30;60.00
15298;DHT22;7750;48.796;9.026;2023-05-19T06:53:41;16.60;59.80
15298;DHT22;7750;48.796;9.026;2023-05-19T06:58:41;16.90;59.20
15298;DHT22;7750;48.796;9.026;2023-05-19T07:03:43;17.10;59.00
15298;DHT22;7750;48.796;9.026;2023-05-19T07:08:49;17.20;58.50
15298;DHT22;7750;48.796;9.026;2023-05-19T07:13:50;17.20;58.80
15298;DHT22;7750;48.796;9.026;2023-05-19T07:19:08;17.30;58.80
15298;DHT22;7750;48.796;9.026;2023-05-19T07:24:09;17.40;58.90
15298;DHT22;7750;48.796;9.026;2023-05-19T07:29:10;17.50;58.70
15298;DHT22;7750;48.796;9.026;2023-05-19T07:34:11;17.50;58.40
15298;DHT22;7750;48.796;9.026;2023-05-19T07:39:12;17.40;58.40
15298;DHT22;7750;48.796;9.026;2023-05-19T07:44:15;17.40;58.80
15298;DHT22;7750;48.796;9.026;2023-05-19T07:49:23;17.40;58.60
15298;DHT22;7750;48.796;9.026;2023-05-19T07:54:24;17.30;58.50
15298;DHT22;7750;48.796;9.026;2023-05-19T07:59:25;17.30;58.30
15298;DHT22;7750;48.796;9.026;2023-05-19T08:04:26;17.30;58.20
15298;DHT22;7750;48.796;9.026;2023-05-19T08:09:27;17.30;58.00
15298;DHT22;7750;48.796;9.026;2023-05-19T08:14:30;17.20;58.00
15298;DHT22;7750;48.796;9.026;2023-05-19T08:19:32;17.20;58.10
15298;DHT22;7750;48.796;9.026;2023-05-19T08:24:33;17.20;58.40
15298;DHT22;7750;48.796;9.026;2023-05-19T08:29:34;17.30;58.20
15298;DHT22;7750;48.796;9.026;2023-05-19T08:34:35;17.40;58.00
15298;DHT22;7750;48.796;9.026;2023-05-19T08:39:36;17.40;57.80
15298;DHT22;7750;48.796;9.026;2023-05-19T08:44:37;17.40;57.90
15298;DHT22;7750;48.796;9.026;2023-05-19T08:49:46;17.40;57.60
15298;DHT22;7750;48.796;9.026;2023-05-19T08:55:07;17.40;57.50
15298;DHT22;7750;48.796;9.026;2023-05-19T09:00:09;17.50;57.70
15298;DHT22;7750;48.796;9.026;2023-05-19T09:05:12;17.50;58.00
15298;DHT22;7750;48.796;9.026;2023-05-19T09:10:15;17.60;57.20
15298;DHT22;7750;48.796;9.026;2023-05-19T09:15:16;17.60;57.30
15298;DHT22;7750;48.796;9.026;2023-05-19T09:20:20;17.70;57.50
15298;DHT22;7750;48.796;9.026;2023-05-19T09:25:24;17.70;57.40
15298;DHT22;7750;48.796;9.026;2023-05-19T09:30:25;17.70;57.50
15298;DHT22;7750;48.796;9.026;2023-05-19T09:35:26;17.70;57.50
15298;DHT22;7750;48.796;9.026;2023-05-19T09:40:27;17.70;57.20
15298;DHT22;7750;48.796;9.026;2023-05-19T09:45:28;17.70;57.30
15298;DHT22;7750;48.796;9.026;2023-05-19T09:50:28;17.80;57.50
15298;DHT22;7750;48.796;9.026;2023-05-19T09:55:30;17.80;57.40
15298;DHT22;7750;48.796;9.026;2023-05-19T10:00:32;17.80;57.30
15298;DHT22;7750;48.796;9.026;2023-05-19T10:05:33;17.80;57.30
15298;DHT22;7750;48.796;9.026;2023-05-19T10:10:36;17.80;57.40
15298;DHT22;7750;48.796;9.026;2023-05-19T10:15:37;17.80;57.30
15298;DHT22;7750;48.796;9.026;2023-05-19T10:20:40;17.90;57.40
15298;DHT22;7750;48.796;9.026;2023-05-19T10:25:42;18.00;57.10
15298;DHT22;7750;48.796;9.026;2023-05-19T10:30:48;18.10;57.50
15298;DHT22;7750;48.796;9.026;2023-05-19T10:36:13;18.10;56.70
15298;DHT22;7750;48.796;9.026;2023-05-19T10:46:43;18.20;56.80
15298;DHT22;7750;48.796;9.026;2023-05-19T10:51:44;18.20;57.00
15298;DHT22;7750;48.796;9.026;2023-05-19T10:56:45;18.20;57.20
15298;DHT22;7750;48.796;9.026;2023-05-19T11:01:46;18.20;56.80
15298;DHT22;7750;48.796;9.026;2023-05-19T11:06:50;18.20;56.80
15298;DHT22;7750;48.796;9.026;2023-05-19T11:11:52;18.20;56.80
15298;DHT22;7750;48.796;9.026;2023-05-19T11:16:57;18.20;56.50
15298;DHT22;7750;48.796;9.026;2023-05-19T11:22:11;18.20;56.80
15298;DHT22;7750;48.796;9.026;2023-05-19T11:27:33;18.20;56.80
15298;DHT22;7750;48.796;9.026;2023-05-19T11:32:36;18.20;56.60
15298;DHT22;7750;48.796;9.026;2023-05-19T11:37:42;18.10;56.70
15298;DHT22;7750;48.796;9.026;2023-05-19T11:42:42;18.10;57.00
15298;DHT22;7750;48.796;9.026;2023-05-19T11:47:45;18.10;56.80
15298;DHT22;7750;48.796;9.026;2023-05-19T11:52:46;18.10;56.80
15298;DHT22;7750;48.796;9.026;2023-05-19T11:58:05;18.10;56.90
15298;DHT22;7750;48.796;9.026;2023-05-19T12:03:05;18.20;57.10
15298;DHT22;7750;48.796;9.026;2023-05-19T12:08:06;18.20;56.90
15298;DHT22;7750;48.796;9.026;2023-05-19T12:13:08;18.20;57.60
15298;DHT22;7750;48.796;9.026;2023-05-19T12:18:09;18.30;57.60
15298;DHT22;7750;48.796;9.026;2023-05-19T12:23:11;18.40;56.70
15298;DHT22;7750;48.796;9.026;2023-05-19T12:28:15;18.40;57.20
15298;DHT22;7750;48.796;9.026;2023-05-19T12:33:15;18.40;56.80
15298;DHT22;7750;48.796;9.026;2023-05-19T12:38:18;18.30;56.50
15298;DHT22;7750;48.796;9.026;2023-05-19T12:43:20;18.40;56.60
15298;DHT22;7750;48.796;9.026;2023-05-19T12:48:21;18.40;57.00
15298;DHT22;7750;48.796;9.026;2023-05-19T12:53:25;18.50;57.00
15298;DHT22;7750;48.796;9.026;2023-05-19T12:58:27;18.50;56.50
15298;DHT22;7750;48.796;9.026;2023-05-19T13:03:27;18.50;56.60
15298;DHT22;7750;48.796;9.026;2023-05-19T13:08:28;18.50;56.50
15298;DHT22;7750;48.796;9.026;2023-05-19T13:13:29;18.50;56.40
15298;DHT22;7750;48.796;9.026;2023-05-19T13:18:29;18.40;56.50
15298;DHT22;7750;48.796;9.026;2023-05-19T13:23:31;18.40;56.30
15298;DHT22;7750;48.796;9.026;2023-05-19T13:28:32;18.40;56.50
15298;DHT22;7750;48.796;9.026;2023-05-19T13:33:32;18.40;56.80
15298;DHT22;7750;48.796;9.026;2023-05-19T13:38:33;18.40;57.20
15298;DHT22;7750;48.796;9.026;2023-05-19T13:43:34;18.40;57.10
15298;DHT22;7750;48.796;9.026;2023-05-19T13:48:34;18.40;57.10
15298;DHT22;7750;48.796;9.026;2023-05-19T13:53:35;18.40;57.30
15298;DHT22;7750;48.796;9.026;2023-05-19T13:58:36;18.40;57.60
15298;DHT22;7750;48.796;9.026;2023-05-19T14:03:36;18.40;57.70
15298;DHT22;7750;48.796;9.026;2023-05-19T14:08:37;18.50;57.60
15298;DHT22;7750;48.796;9.026;2023-05-19T14:13:37;18.50;57.30
15298;DHT22;7750;48.796;9.026;2023-05-19T14:18:38;18.50;57.30
15298;DHT22;7750;48.796;9.026;2023-05-19T14:23:39;18.50;57.40
15298;DHT22;7750;48.796;9.026;2023-05-19T14:28:39;18.40;57.30
15298;DHT22;7750;48.796;9.026;2023-05-19T14:33:41;18.40;57.40
15298;DHT22;7750;48.796;9.026;2023-05-19T14:38:41;18.30;57.10
15298;DHT22;7750;48.796;9.026;2023-05-19T14:43:42;18.30;57.40
15298;DHT22;7750;48.796;9.026;2023-05-19T14:48:42;18.30;57.50
15298;DHT22;7750;48.796;9.026;2023-05-19T14:53:43;18.30;57.50
15298;DHT22;7750;48.796;9.026;2023-05-19T14:58:44;18.40;57.60
15298;DHT22;7750;48.796;9.026;2023-05-19T15:03:44;18.50;57.50
15298;DHT22;7750;48.796;9.026;2023-05-19T15:08:45;18.60;57.20
15298;DHT22;7750;48.796;9.026;2023-05-19T15:13:46;18.60;57.20
15298;DHT22;7750;48.796;9.026;2023-05-19T15:18:46;18.60;57.30
15298;DHT22;7750;48.796;9.026;2023-05-19T15:23:47;18.70;57.30
15298;DHT22;7750;48.796;9.026;2023-05-19T15:28:47;18.70;57.20
15298;DHT22;7750;48.796;9.026;2023-05-19T15:33:48;18.70;57.10
15298;DHT22;7750;48.796;9.026;2023-05-19T15:38:48;18.70;57.10
15298;DHT22;7750;48.796;9.026;2023-05-19T15:43:49;18.70;57.00
15298;DHT22;7750;48.796;9.026;2023-05-19T15:48:50;18.70;57.20
15298;DHT22;7750;48.796;9.026;2023-05-19T15:53:51;18.70;57.30
15298;DHT22;7750;48.796;9.026;2023-05-19T15:58:51;18.70;57.20
15298;DHT22;7750;48.796;9.026;2023-05-19T16:03:52;18.70;57.40
15298;DHT22;7750;48.796;9.026;2023-05-19T16:08:52;18.80;57.40
15298;DHT22;7750;48.796;9.026;2023-05-19T16:13:53;18.80;57.50
15298;DHT22;7750;48.796;9.026;2023-05-19T16:18:54;18.90;57.40
15298;DHT22;7750;48.796;9.026;2023-05-19T16:23:54;19.00;57.10
15298;DHT22;7750;48.796;9.026;2023-05-19T16:28:55;19.00;57.10
15298;DHT22;7750;48.796;9.026;2023-05-19T16:33:56;19.10;57.20
15298;DHT22;7750;48.796;9.026;2023-05-19T16:38:56;19.00;57.00
15298;DHT22;7750;48.796;9.026;2023-05-19T16:43:57;19.00;56.70
15298;DHT22;7750;48.796;9.026;2023-05-19T16:48:57;19.00;56.80
15298;DHT22;7750;48.796;9.026;2023-05-19T16:53:58;19.00;57.10
15298;DHT22;7750;48.796;9.026;2023-05-19T16:58:59;19.00;57.00
15298;DHT22;7750;48.796;9.026;2023-05-19T17:04:00;19.00;57.10
15298;DHT22;7750;48.796;9.026;2023-05-19T17:09:00;19.00;57.20
15298;DHT22;7750;48.796;9.026;2023-05-19T17:14:01;19.00;57.10
15298;DHT22;7750;48.796;9.026;2023-05-19T17:19:06;19.10;57.20
15298;DHT22;7750;48.796;9.026;2023-05-19T17:24:07;19.10;57.20
15298;DHT22;7750;48.796;9.026;2023-05-19T17:29:08;19.10;57.20
15298;DHT22;7750;48.796;9.026;2023-05-19T17:34:11;19.10;57.40
15298;DHT22;7750;48.796;9.026;2023-05-19T17:39:12;19.20;57.20
15298;DHT22;7750;48.796;9.026;2023-05-19T17:44:12;19.20;57.20
15298;DHT22;7750;48.796;9.026;2023-05-19T17:49:13;19.20;57.20
15298;DHT22;7750;48.796;9.026;2023-05-19T17:54:14;19.20;57.60
15298;DHT22;7750;48.796;9.026;2023-05-19T17:59:15;19.20;57.20
15298;DHT22;7750;48.796;9.026;2023-05-19T18:04:16;19.20;57.20
15298;DHT22;7750;48.796;9.026;2023-05-19T18:09:18;19.10;57.20
15298;DHT22;7750;48.796;9.026;2023-05-19T18:14:19;19.10;57.30
15298;DHT22;7750;48.796;9.026;2023-05-19T18:19:20;19.00;57.30
15298;DHT22;7750;48.796;9.026;2023-05-19T18:24:21;19.00;57.50
15298;DHT22;7750;48.796;9.026;2023-05-19T18:29:21;18.90;57.90
15298;DHT22;7750;48.796;9.026;2023-05-19T18:34:22;18.80;58.10
15298;DHT22;7750;48.796;9.026;2023-05-19T18:39:22;18.80;58.40
15298;DHT22;7750;48.796;9.026;2023-05-19T18:44:23;18.70;58.60
15298;DHT22;7750;48.796;9.026;2023-05-19T18:49:24;18.60;58.70
15298;DHT22;7750;48.796;9.026;2023-05-19T18:54:24;18.50;58.80
15298;DHT22;7750;48.796;9.026;2023-05-19T18:59:25;18.40;58.90
15298;DHT22;7750;48.796;9.026;2023-05-19T19:04:26;18.30;59.00
15298;DHT22;7750;48.796;9.026;2023-05-19T19:09:26;18.10;59.00
15298;DHT22;7750;48.796;9.026;2023-05-19T19:14:27;18.10;59.20
15298;DHT22;7750;48.796;9.026;2023-05-19T19:19:27;17.90;59.30
15298;DHT22;7750;48.796;9.026;2023-05-19T19:24:29;17.80;59.40
15298;DHT22;7750;48.796;9.026;2023-05-19T19:29:34;17.70;59.40
15298;DHT22;7750;48.796;9.026;2023-05-19T19:34:35;17.60;59.70
15298;DHT22;7750;48.796;9.026;2023-05-19T19:39:36;17.50;59.60
15298;DHT22;7750;48.796;9.026;2023-05-19T19:44:37;17.50;59.90
15298;DHT22;7750;48.796;9.026;2023-05-19T19:49:38;17.40;60.00
15298;DHT22;7750;48.796;9.026;2023-05-19T19:54:38;17.30;60.40
15298;DHT22;7750;48.796;9.026;2023-05-19T19:59:39;17.30;60.70
15298;DHT22;7750;48.796;9.026;2023-05-19T20:04:40;17.20;61.10
15298;DHT22;7750;48.796;9.026;2023-05-19T20:09:40;17.20;61.10
15298;DHT22;7750;48.796;9.026;2023-05-19T20:14:41;17.20;61.40
15298;DHT22;7750;48.796;9.026;2023-05-19T20:19:42;17.20;61.70
15298;DHT22;7750;48.796;9.026;2023-05-19T20:24:43;17.10;61.70
15298;DHT22;7750;48.796;9.026;2023-05-19T20:29:43;17.10;62.00
15298;DHT22;7750;48.796;9.026;2023-05-19T20:34:46;17.10;62.10
15298;DHT22;7750;48.796;9.026;2023-05-19T20:39:47;17.00;62.50
15298;DHT22;7750;48.796;9.026;2023-05-19T20:44:47;17.00;62.50
15298;DHT22;7750;48.796;9.026;2023-05-19T20:49:48;17.00;62.80
15298;DHT22;7750;48.796;9.026;2023-05-19T20:54:49;16.90;63.00
15298;DHT22;7750;48.796;9.026;2023-05-19T20:59:50;16.90;63.10
15298;DHT22;7750;48.796;9.026;2023-05-19T21:04:51;16.90;63.30
15298;DHT22;7750;48.796;9.026;2023-05-19T21:09:51;16.90;63.40
15298;DHT22;7750;48.796;9.026;2023-05-19T21:14:53;16.90;63.60
15298;DHT22;7750;48.796;9.026;2023-05-19T21:19:54;16.90;63.50
15298;DHT22;7750;48.796;9.026;2023-05-19T21:24:57;16.80;63.60
15298;DHT22;7750;48.796;9.026;2023-05-19T21:29:58;16.80;63.70
15298;DHT22;7750;48.796;9.026;2023-05-19T21:34:59;16.80;63.70
15298;DHT22;7750;48.796;9.026;2023-05-19T21:40:00;16.80;63.90
15298;DHT22;7750;48.796;9.026;2023-05-19T21:45:01;16.80;63.90
15298;DHT22;7750;48.796;9.026;2023-05-19T21:50:02;16.70;64.10
15298;DHT22;7750;48.796;9.026;2023-05-19T21:55:04;16.70;64.00
15298;DHT22;7750;48.796;9.026;2023-05-19T22:00:05;16.70;64.30
15298;DHT22;7750;48.796;9.026;2023-05-19T22:05:07;16.60;64.30
15298;DHT22;7750;48.796;9.026;2023-05-19T22:10:08;16.60;64.10
15298;DHT22;7750;48.796;9.026;2023-05-19T22:15:10;16.50;64.00
15298;DHT22;7750;48.796;9.026;2023-05-19T22:20:12;16.50;64.30
15298;DHT22;7750;48.796;9.026;2023-05-19T22:25:13;16.40;64.20
15298;DHT22;7750;48.796;9.026;2023-05-19T22:30:13;16.30;64.20
15298;DHT22;7750;48.796;9.026;2023-05-19T22:35:15;16.30;64.20
15298;DHT22;7750;48.796;9.026;2023-05-19T22:40:15;16.20;64.20
15298;DHT22;7750;48.796;9.026;2023-05-19T22:45:17;16.10;64.00
15298;DHT22;7750;48.796;9.026;2023-05-19T22:50:17;16.00;64.20
15298;DHT22;7750;48.796;9.026;2023-05-19T22:55:19;16.00;64.40
15298;DHT22;7750;48.796;9.026;2023-05-19T23:00:20;15.90;64.60
15298;DHT22;7750;48.796;9.026;2023-05-19T23:05:20;15.90;64.90
15298;DHT22;7750;48.796;9.026;2023-05-19T23:10:21;15.80;65.00
15298;DHT22;7750;48.796;9.026;2023-05-19T23:15:22;15.80;65.00
15298;DHT22;7750;48.796;9.026;2023-05-19T23:20:23;15.80;65.20
15298;DHT22;7750;48.796;9.026;2023-05-19T23:25:23;15.80;65.40
15298;DHT22;7750;48.796;9.026;2023-05-19T23:30:24;15.80;65.60
15298;DHT22;7750;48.796;9.026;2023-05-19T23:35:24;15.80;65.70
15298;DHT22;7750;48.796;9.026;2023-05-19T23:40:25;15.80;65.80
15298;DHT22;7750;48.796;9.026;2023-05-19T23:45:26;15.80;65.80
15298;DHT22;7750;48.796;9.026;2023-05-19T23:50:26;15.80;65.80
15298;DHT22;7750;48.796;9.026;2023-05-19T23:55:27;15.70;65.80
